Latest Weather Observations for Katanning RS

IDW60801

Issued at 2:03 pm WST Saturday 24 February 2018 (issued every 30 minutes, with the page automatically refreshed every 10 minutes)

About weather observations | Map of weather stations | Latest weather observations for WA | Other Formats
Station Details ID: 010916 Name: KATANNING Lat: -33.69 Lon: 117.61 Height: 320.0 m
Data from the previous 72 hours. | See also: Recent months at Katanning RS
Date/Time
WST
Temp
°C
App
Temp
°C
Dew
Point
°C
Rel
Hum
%
Delta-T
°C
Wind Press
QNH
hPa
Press
MSL
hPa
Rain since
9am
mm
Dir  Spd
km/h
Gust
km/h
Spd
kts
Gust
kts
24/02:00pm 23.9 18.1 4.3 28 9.8 ESE 24 39 13 21 1019.1 1017.7 0.0
24/01:30pm 22.8 17.1 4.8 31 9.0 E 24 35 13 19 1019.6 1018.2 0.0
24/01:00pm 22.7 17.0 4.7 31 9.0 ESE 24 33 13 18 1020.1 1018.7 0.0
24/12:30pm 21.9 16.3 5.3 34 8.4 E 24 39 13 21 1020.4 1019.1 0.0
24/12:00pm 23.4 17.5 5.8 32 9.0 E 26 41 14 22 1020.8 1019.5 0.0
24/11:30am 21.3 15.4 5.6 36 7.9 ESE 26 44 14 24 1021.4 1020.1 0.0
24/11:00am 20.2 13.8 5.4 38 7.4 E 28 41 15 22 1021.8 1020.5 0.0
24/10:30am 21.0 15.5 5.8 37 7.7 E 24 37 13 20 1022.1 1020.8 0.0
24/10:00am 19.9 14.5 6.3 41 6.9 ESE 24 35 13 19 1022.4 1021.0 0.0
24/09:30am 18.0 11.5 6.5 47 5.8 ESE 30 41 16 22 1022.6 1021.2 0.0
24/09:00am 17.6 11.7 7.4 51 5.2 E 28 41 15 22 1022.7 1021.3 0.0
24/08:30am 16.2 10.3 7.4 56 4.5 E 28 43 15 23 1022.8 1021.4 0.0
24/08:00am 15.4 10.6 7.4 59 4.0 ESE 22 33 12 18 1022.7 1021.3 0.0
24/07:30am 14.9 10.6 7.7 62 3.6 ESE 20 26 11 14 1022.6 1021.2 0.0
24/07:00am 13.6 9.9 7.8 68 2.9 ESE 17 26 9 14 1022.1 1020.8 0.0
24/06:30am 12.4 9.1 7.9 74 2.2 ESE 15 20 8 11 1021.9 1020.6 0.0
24/06:00am 11.9 9.0 8.0 77 1.9 ESE 13 19 7 10 1021.6 1020.3 0.0
24/05:30am 11.6 8.7 8.1 79 1.7 ESE 13 19 7 10 1021.4 1020.1 0.0
24/05:00am 11.6 9.1 8.1 79 1.7 ESE 11 17 6 9 1021.2 1019.9 0.0
24/04:30am 11.9 9.4 8.0 77 1.9 SE 11 15 6 8 1020.8 1019.5 0.0
24/04:00am 12.3 9.4 8.2 76 2.1 SE 13 17 7 9 1020.5 1019.2 0.0
24/03:30am 11.8 9.4 8.5 80 1.7 SE 11 17 6 9 1020.4 1019.1 0.0
24/03:00am 11.8 8.9 8.3 79 1.7 SE 13 17 7 9 1020.2 1018.8 0.0
24/02:30am 11.6 9.1 8.1 79 1.7 SE 11 15 6 8 1020.3 1018.9 0.0
24/02:00am 11.6 9.1 8.1 79 1.7 SSE 11 13 6 7 1020.2 1018.8 0.0
24/01:30am 11.8 9.2 7.9 77 1.9 SE 11 15 6 8 1020.4 1019.1 0.0
24/01:00am 12.1 9.2 8.0 76 2.0 SE 13 17 7 9 1020.5 1019.2 0.0
24/12:30am 12.6 10.1 8.3 75 2.2 SE 11 15 6 8 1020.6 1019.3 0.0
24/12:00am 12.8 9.9 8.3 74 2.3 SE 13 20 7 11 1020.7 1019.4 0.0
 
Date/Time
WST
Temp
°C
App
Temp
°C
Dew
Point
°C
Rel
Hum
%
Delta-T
°C
Wind Press
QNH
hPa
Press
MSL
hPa
Rain since
9am
mm
Dir  Spd
km/h
Gust
km/h
Spd
kts
Gust
kts
23/11:30pm 12.8 10.3 8.3 74 2.3 SE 11 15 6 8 1020.9 1019.6 0.0
23/11:00pm 13.3 10.1 8.4 72 2.5 SE 15 24 8 13 1021.0 1019.7 0.0
23/10:30pm 13.6 10.5 8.7 72 2.5 SE 15 20 8 11 1021.0 1019.7 0.0
23/10:00pm 14.1 10.0 8.5 69 2.9 SSE 20 32 11 17 1020.9 1019.6 0.0
23/09:30pm 14.1 10.4 8.1 67 3.0 SE 17 22 9 12 1020.6 1019.3 0.0
23/09:00pm 14.5 11.1 7.5 63 3.5 SE 15 24 8 13 1020.3 1018.9 0.0
23/08:30pm 15.0 10.1 7.1 59 3.9 SSE 22 30 12 16 1019.9 1018.5 0.0
23/08:00pm 15.6 10.8 7.4 58 4.1 SSE 22 30 12 16 1019.5 1018.1 0.0
23/07:30pm 16.2 11.5 7.9 58 4.2 SSE 22 37 12 20 1019.0 1017.6 0.0
23/07:00pm 16.9 11.3 8.6 58 4.3 S 28 43 15 23 1018.3 1017.0 0.0
23/06:30pm 17.1 11.9 9.0 59 4.3 SSE 26 39 14 21 1018.0 1016.7 0.0
23/06:00pm 17.3 11.9 9.5 60 4.1 S 28 43 15 23 1017.8 1016.5 0.0
23/05:30pm 18.0 12.6 9.6 58 4.5 SSE 28 37 15 20 1017.5 1016.1 0.0
23/05:00pm 18.4 13.6 10.3 59 4.4 S 26 37 14 20 1017.3 1015.9 0.0
23/04:30pm 18.7 14.3 10.5 59 4.5 SSE 24 33 13 18 1017.1 1015.7 0.0
23/04:00pm 18.5 13.9 11.1 62 4.1 SSE 26 35 14 19 1016.9 1015.5 0.0
23/03:30pm 18.3 13.3 12.1 67 3.5 SSE 30 41 16 22 1016.6 1015.2 0.0
23/03:00pm 18.4 13.7 11.9 66 3.6 S 28 43 15 23 1016.3 1014.9 0.0
23/02:30pm 19.5 14.4 11.8 61 4.3 SSE 30 39 16 21 1016.0 1014.6 0.0
23/02:00pm 20.2 15.4 11.7 58 4.8 S 28 41 15 22 1015.7 1014.3 0.0
23/01:30pm 20.4 15.4 10.8 54 5.3 SSE 28 37 15 20 1015.5 1014.2 0.0
23/01:00pm 19.3 14.6 12.1 63 4.1 S 28 41 15 22 1015.7 1014.3 0.0
23/12:30pm 18.4 13.8 12.4 68 3.4 SSE 28 43 15 23 1015.4 1014.1 0.0
23/12:00pm 17.7 13.2 12.6 72 2.9 S 28 44 15 24 1015.2 1013.9 0.0
23/11:30am 18.7 14.3 14.2 75 2.6 SSE 30 43 16 23 1014.9 1013.6 0.0
23/11:00am 17.5 14.1 14.8 84 1.6 S 26 39 14 21 1014.7 1013.3 0.0
23/10:30am 17.2 15.0 15.0 87 1.3 S 20 30 11 16 1014.7 1013.3 0.0
23/10:00am 17.8 15.3 15.1 84 1.6 S 22 35 12 19 1014.4 1013.0 0.0
23/09:30am 18.9 17.1 15.4 80 2.1 S 19 28 10 15 1014.2 1012.8 0.0
23/09:00am 18.7 16.9 15.4 81 2.0 S 19 28 10 15 1013.9 1012.5 0.0
23/08:30am 18.9 16.8 14.8 77 2.4 S 19 26 10 14 1013.5 1012.1 0.0
23/08:00am 19.4 17.3 15.1 76 2.6 SSE 20 30 11 16 1013.3 1011.9 0.0
23/07:30am 19.3 17.7 15.0 76 2.6 SSE 17 28 9 15 1012.9 1011.5 0.0
23/07:00am 19.2 17.3 15.3 78 2.3 SSE 19 28 10 15 1012.6 1011.2 0.0
23/06:30am 19.1 17.6 15.2 78 2.3 SSE 17 28 9 15 1012.1 1010.8 0.0
23/06:00am 18.9 17.1 15.4 80 2.1 SSE 19 26 10 14 1011.7 1010.3 0.0
23/05:30am 18.5 17.7 15.2 81 2.0 SSE 13 19 7 10 1011.5 1010.1 0.0
23/05:00am 18.1 16.9 15.0 82 1.8 S 15 20 8 11 1011.2 1009.8 0.0
23/04:30am 18.0 17.5 14.9 82 1.8 S 11 19 6 10 1011.0 1009.6 0.0
23/04:00am 17.8 16.5 14.9 83 1.7 S 15 20 8 11 1010.7 1009.3 0.0
23/03:30am 17.9 16.3 15.0 83 1.7 SSE 17 26 9 14 1010.4 1009.0 0.0
23/03:00am 18.1 16.6 15.2 83 1.7 SSE 17 26 9 14 1010.2 1008.8 0.0
23/02:30am 18.1 16.1 15.4 84 1.6 SSE 20 30 11 16 1010.1 1008.7 0.0
23/02:00am 18.0 16.5 15.4 85 1.5 SSE 17 22 9 12 1010.1 1008.7 0.0
23/01:30am 17.9 17.1 15.2 84 1.6 S 13 17 7 9 1010.1 1008.7 0.0
23/01:00am 18.1 16.9 15.0 82 1.8 S 15 20 8 11 1010.3 1008.9 0.0
23/12:30am 18.6 17.3 14.7 78 2.3 S 15 19 8 10 1010.4 1009.0 0.0
23/12:00am 19.1 17.4 14.8 76 2.5 SSE 17 24 9 13 1010.2 1008.8 0.0
 
Date/Time
WST
Temp
°C
App
Temp
°C
Dew
Point
°C
Rel
Hum
%
Delta-T
°C
Wind Press
QNH
hPa
Press
MSL
hPa
Rain since
9am
mm
Dir  Spd
km/h
Gust
km/h
Spd
kts
Gust
kts
22/11:30pm 19.6 17.5 14.6 73 3.0 SSE 19 24 10 13 1010.0 1008.6 0.0
22/11:00pm 20.2 18.1 14.8 71 3.2 SSE 19 24 10 13 1010.0 1008.6 0.0
22/10:30pm 20.7 19.0 14.8 69 3.5 SSE 17 20 9 11 1010.1 1008.7 0.0
22/10:00pm 21.4 19.3 14.8 66 3.9 SSE 19 26 10 14 1010.1 1008.7 0.0
22/09:30pm 21.9 19.3 14.8 64 4.2 SSE 22 30 12 16 1010.0 1008.6 0.0
22/09:00pm 22.5 19.2 14.9 62 4.6 S 26 39 14 21 1010.0 1008.6 0.0
22/08:47pm 22.7 18.9 14.8 61 4.7 SSW 28 46 15 25 1009.8 1008.4 0.0
22/08:30pm 23.1 19.3 14.7 59 5.0 S 28 41 15 22 1009.5 1008.1 0.0
22/08:00pm 24.3 20.7 14.1 53 6.1 SSW 26 39 14 21 1008.8 1007.4 0.0
22/07:30pm 26.1 22.0 13.9 47 7.3 SSW 28 41 15 22 1008.2 1006.8 0.0
22/07:17pm 28.1 26.4 11.2 35 9.8 W 11 41 6 22 1007.9 1006.5 0.0
22/07:00pm 29.0 28.4 7.6 26 11.8 CALM 0 0 0 0 1007.7 1006.3 0.0
22/06:30pm 29.6 29.2 8.1 26 11.9 CALM 0 4 0 2 1007.5 1006.1 0.0
22/06:00pm 30.1 28.3 7.9 25 12.3 NW 7 13 4 7 1007.3 1005.9 0.0
22/05:30pm 31.1 28.8 7.5 23 13.1 WNW 9 13 5 7 1007.3 1005.9 0.0
22/05:00pm 31.3 28.7 7.7 23 13.1 WNW 11 19 6 10 1007.3 1005.9 0.0
22/04:30pm 30.6 28.9 8.3 25 12.5 NNW 7 13 4 7 1007.4 1006.0 0.0
22/04:00pm 30.6 27.2 7.7 24 12.7 W 15 20 8 11 1007.5 1006.1 0.0
22/03:30pm 31.9 29.0 8.2 23 13.3 W 13 24 7 13 1007.6 1006.2 0.0
22/03:00pm 30.8 27.8 7.9 24 12.8 WSW 13 20 7 11 1007.7 1006.3 0.0
22/02:30pm 31.1 29.4 8.2 24 12.8 WNW 7 26 4 14 1007.9 1006.5 0.0
22/02:00pm 29.1 27.7 8.7 28 11.4 WNW 6 9 3 5 1008.2 1006.8 0.0
22/01:30pm 30.1 27.8 9.1 27 11.9 NE 11 19 6 10 1008.4 1007.0 0.0
22/01:00pm 31.0 29.2 9.3 26 12.4 WNW 9 20 5 11 1008.8 1007.4 0.0
22/12:30pm 27.9 25.8 9.7 32 10.3 N 11 19 6 10 1009.0 1007.6 0.0
22/12:00pm 28.4 27.0 11.0 34 10.1 WNW 9 19 5 10 1009.4 1008.0 0.0
22/11:30am 26.1 25.9 11.8 41 8.3 SW 4 9 2 5 1009.6 1008.2 0.0
22/11:00am 26.5 25.5 12.2 41 8.4 NNE 9 19 5 10 1009.9 1008.5 0.0
22/10:30am 25.6 24.3 13.8 48 7.1 NNE 13 20 7 11 1010.2 1008.8 0.0
22/10:00am 24.9 23.9 14.7 53 6.2 NE 13 20 7 11 1010.7 1009.3 0.0
22/09:30am 23.3 22.4 14.8 59 5.1 NNE 13 22 7 12 1010.9 1009.5 0.0
22/09:00am 22.4 21.9 15.0 63 4.5 NE 11 15 6 8 1011.1 1009.7 0.0
22/08:30am 20.5 20.9 15.3 72 3.1 NE 7 15 4 8 1011.1 1009.7 0.0
22/08:00am 19.0 18.2 15.1 78 2.3 NE 13 17 7 9 1011.3 1009.9 0.0
22/07:30am 18.4 17.4 14.7 79 2.2 ENE 13 19 7 10 1011.2 1009.8 0.0
22/07:00am 17.9 17.0 14.8 82 1.8 ENE 13 19 7 10 1011.0 1009.6 0.0
22/06:30am 17.7 16.3 14.6 82 1.8 ENE 15 20 8 11 1010.8 1009.4 0.0
22/06:00am 17.6 16.2 14.5 82 1.8 NE 15 20 8 11 1010.8 1009.4 0.0
22/05:30am 17.6 15.4 14.5 82 1.8 ENE 19 22 10 12 1010.7 1009.3 0.0
22/05:00am 17.6 16.6 14.5 82 1.8 E 13 17 7 9 1010.4 1009.0 0.0
22/04:30am 17.8 16.4 14.5 81 1.9 E 15 20 8 11 1010.5 1009.1 0.0
22/04:00am 17.8 16.4 14.5 81 1.9 E 15 20 8 11 1010.4 1009.0 0.0
22/03:30am 17.7 15.9 14.4 81 1.9 ENE 17 22 9 12 1010.7 1009.3 0.0
22/03:00am 18.1 15.9 14.4 79 2.2 ENE 19 26 10 14 1010.5 1009.1 0.0
22/02:30am 18.2 17.2 14.7 80 2.1 E 13 20 7 11 1010.7 1009.3 0.0
22/02:00am 18.4 17.5 14.9 80 2.1 ENE 13 19 7 10 1010.6 1009.2 0.0
22/01:30am 18.3 17.1 15.0 81 2.0 E 15 20 8 11 1010.4 1009.0 0.0
22/01:00am 17.9 17.1 15.0 83 1.7 ESE 13 19 7 10 1010.6 1009.2 0.0
22/12:30am 18.2 16.9 14.9 81 1.9 ESE 15 22 8 12 1010.7 1009.3 0.0
22/12:00am 18.2 16.9 14.9 81 1.9 ESE 15 19 8 10 1010.8 1009.4 0.0
 
Date/Time
WST
Temp
°C
App
Temp
°C
Dew
Point
°C
Rel
Hum
%
Delta-T
°C
Wind Press
QNH
hPa
Press
MSL
hPa
Rain since
9am
mm
Dir  Spd
km/h
Gust
km/h
Spd
kts
Gust
kts
21/11:30pm 18.0 16.4 14.9 82 1.8 ESE 17 22 9 12 1011.0 1009.6 0.0
21/11:00pm 17.9 16.6 14.8 82 1.8 ESE 15 22 8 12 1011.2 1009.8 0.0
21/10:30pm 17.8 16.1 14.7 82 1.8 ESE 17 26 9 14 1011.2 1009.8 0.0
21/10:00pm 17.9 16.5 14.6 81 1.9 ESE 15 22 8 12 1011.3 1009.9 0.0
21/09:30pm 17.8 15.9 14.3 80 2.0 ESE 17 26 9 14 1011.4 1010.0 0.0
21/09:00pm 18.1 15.6 14.0 77 2.4 ESE 20 28 11 15 1011.3 1009.9 0.0
21/08:30pm 19.0 16.7 14.1 73 2.9 E 19 26 10 14 1011.3 1009.9 0.0
21/08:00pm 19.8 17.8 14.0 69 3.4 ESE 17 24 9 13 1011.2 1009.8 0.0
21/07:30pm 20.8 18.7 13.7 64 4.2 ESE 17 28 9 15 1010.8 1009.4 0.0
21/07:00pm 21.6 19.1 13.5 60 4.7 ESE 19 30 10 16 1010.8 1009.4 0.0
21/06:30pm 23.1 20.3 12.7 52 6.0 ESE 19 28 10 15 1010.2 1008.8 0.0
21/06:00pm 23.7 20.7 12.4 49 6.6 ESE 20 32 11 17 1009.9 1008.5 0.0
21/05:30pm 24.9 22.6 11.8 44 7.6 ESE 15 22 8 12 1009.7 1008.3 0.0
21/05:00pm 25.6 23.0 12.1 43 7.9 ESE 17 22 9 12 1009.8 1008.4 0.0
21/04:30pm 25.5 22.5 12.0 43 7.8 SE 19 28 10 15 1009.7 1008.3 0.0
21/04:00pm 24.8 22.8 11.4 43 7.7 E 13 22 7 12 1009.8 1008.4 0.0
21/03:30pm 25.0 23.4 11.6 43 7.7 NE 11 20 6 11 1009.9 1008.5 0.0
21/03:00pm 24.2 21.0 11.2 44 7.4 ESE 19 30 10 16 1010.1 1008.7 0.0
21/02:30pm 24.3 22.2 11.3 44 7.4 SE 13 26 7 14 1010.3 1008.9 0.0

Other Formats:

Comma delimited format used in spreadsheet applications
http://www.bom.gov.au/fwo/IDW60801/IDW60801.94641.axf

JavaScript Object Notation format (JSON) in row-major order
http://www.bom.gov.au/fwo/IDW60801/IDW60801.94641.json